North Island Princes — VDBD — position and weather

sailwx.info

Track history (hours):
 
Tides and Currents Weather Stations Pressure Air Temp Water Temp Dewpoint Dewpoint Depression Visibility Wind Speed Wind Dir Waves Ship Positions

North Island Princes

Last reported at 2018-Feb-20 15:00 UTC. Time now 2018-Feb-20 15:08 UTC.
Position N 49°49' W 124°34'.

Length 66 m; draft 3 m.

Type: Passenger vessel. MMSI: 316001242.

Date/timePositionNaut miles runAvg speedWind from/ knotsBaromVisibWave heightAir tempDewpointWater temp
2018-Feb-20 15:00N 49°49' W 124°34'2 3.1
2018-Feb-20 14:31N 49°50' W 124°32'4 8.2
2018-Feb-20 14:00N 49°48' W 124°37'0 0.0
2018-Feb-20 12:28N 49°48' W 124°37'0 0.1
2018-Feb-20 11:46N 49°48' W 124°37'0 0.0
2018-Feb-20 11:28N 49°48' W 124°37'0 0.0
2018-Feb-20 10:52N 49°48' W 124°37'0 0.1
2018-Feb-20 10:28N 49°48' W 124°37'0 0.0
2018-Feb-20 09:58N 49°48' W 124°37'0 0.1
2018-Feb-20 09:28N 49°48' W 124°37'0 0.1
2018-Feb-20 08:58N 49°48' W 124°37'0 0.0
2018-Feb-20 08:28N 49°48' W 124°37'0 0.1
2018-Feb-20 07:58N 49°48' W 124°37'0 0.0
2018-Feb-20 07:28N 49°48' W 124°37'0 0.1
2018-Feb-20 06:58N 49°48' W 124°37'0 0.0
2018-Feb-20 06:28N 49°48' W 124°37'0 0.0
2018-Feb-20 05:57N 49°48' W 124°37'4 8.3
2018-Feb-20 05:30N 49°50' W 124°33'2 3.3
2018-Feb-20 05:00N 49°49' W 124°35'2 3.9
2018-Feb-20 04:31N 49°48' W 124°37'1 1.7
2018-Feb-20 04:00N 49°48' W 124°37'3 7.0
2018-Feb-20 03:30N 49°50' W 124°32'3 5.3
2018-Feb-20 03:00N 49°49' W 124°35'2 3.2
2018-Feb-20 02:30N 49°48' W 124°37'4 8.2
2018-Feb-20 02:00N 49°50' W 124°32'0 0.5
2018-Feb-20 01:30N 49°50' W 124°32'4 7.1
2018-Feb-20 00:56N 49°48' W 124°37'0 0.0
2018-Feb-20 00:30N 49°48' W 124°37'2 3.2
2018-Feb-20 00:00N 49°49' W 124°36'3 5.4
2018-Feb-19 23:31N 49°50' W 124°32'4 8.2
2018-Feb-19 23:00N 49°48' W 124°37'0 0.2
2018-Feb-19 22:30N 49°48' W 124°37'0 0.0
2018-Feb-19 21:11N 49°48' W 124°37'0 0.2
2018-Feb-19 20:59N 49°48' W 124°37'2 3.8
2018-Feb-19 20:30N 49°49' W 124°36'3 5.1
2018-Feb-19 20:00N 49°50' W 124°32'4 7.7
2018-Feb-19 19:30N 49°48' W 124°37'0 0.9
2018-Feb-19 19:00N 49°49' W 124°37'3 6.9
2018-Feb-19 18:30N 49°50' W 124°32'0 0.0
2018-Feb-19 18:01N 49°50' W 124°32'3 5.9
2018-Feb-19 17:30N 49°49' W 124°36'1 2.5
2018-Feb-19 17:01N 49°48' W 124°37'4 8.1
2018-Feb-19 16:31N 49°50' W 124°32'3 6.1
2018-Feb-19 16:01N 49°49' W 124°36'1 2.8
2018-Feb-19 15:31N 49°48' W 124°37'3 5.1
2018-Feb-19 15:00N 49°49' W 124°34'2 3.2
2018-Feb-19 14:30N 49°50' W 124°32'4 8.2
2018-Feb-19 14:00N 49°48' W 124°37'0 0.2
2018-Feb-19 13:30N 49°48' W 124°37'0 0.0
2018-Feb-19 10:20N 49°48' W 124°37'0 0.0
2018-Feb-19 09:44N 49°48' W 124°37'0 1.9
2018-Feb-19 09:30N 49°48' W 124°37'4 7.8
2018-Feb-19 09:00N 49°50' W 124°32'3 7.0
2018-Feb-19 08:31N 49°49' W 124°37'1 1.8
2018-Feb-19 07:59N 49°48' W 124°37'0 0.1
2018-Feb-19 07:29N 49°48' W 124°37'0 0.0
2018-Feb-19 06:59N 49°48' W 124°37'0 0.0
2018-Feb-19 06:29N 49°48' W 124°37'1 2.7
2018-Feb-19 06:00N 49°49' W 124°36'3 6.0
2018-Feb-19 05:31N 49°50' W 124°32'4 8.3
2018-Feb-19 05:00N 49°48' W 124°37'1 2.8
2018-Feb-19 04:30N 49°49' W 124°36'3 5.8
2018-Feb-19 04:00N 49°50' W 124°32'4 8.0
2018-Feb-19 03:30N 49°48' W 124°37'1 1.1
2018-Feb-19 03:00N 49°48' W 124°37'4 7.4
2018-Feb-19 02:30N 49°50' W 124°32'0 0.0
2018-Feb-19 02:00N 49°50' W 124°32'1 2.3
2018-Feb-19 01:30N 49°50' W 124°33'3 4.7
2018-Feb-19 00:51N 49°48' W 124°37'2 5.9
2018-Feb-19 00:30N 49°49' W 124°35'2 3.7
2018-Feb-19 00:00N 49°50' W 124°32'4 7.8
2018-Feb-18 23:30N 49°48' W 124°37'0 0.0
2018-Feb-18 22:55N 49°48' W 124°37'0 0.0
2018-Feb-18 22:13N 49°48' W 124°37'0 0.0
2018-Feb-18 21:58N 49°48' W 124°37'0 0.0
2018-Feb-18 21:10N 49°48' W 124°37'0 0.0
2018-Feb-18 20:58N 49°48' W 124°37'2 3.6
2018-Feb-18 20:30N 49°49' W 124°35'3 5.2
2018-Feb-18 20:00N 49°50' W 124°32'4 7.9
2018-Feb-18 19:30N 49°48' W 124°37'1 0.9
2018-Feb-18 18:54N 49°48' W 124°37'0 0.0
2018-Feb-18 18:24N 49°48' W 124°37'0 0.6
2018-Feb-18 18:00N 49°48' W 124°37'4 8.0
2018-Feb-18 17:30N 49°50' W 124°32'2 4.6
2018-Feb-18 17:00N 49°49' W 124°35'2 4.0
2018-Feb-18 16:30N 49°48' W 124°37'0 0.0
2018-Feb-18 15:58N 49°48' W 124°37'2 4.2
2018-Feb-18 15:29N 49°49' W 124°34'2 4.6
2018-Feb-18 15:00N 49°50' W 124°32'4 8.1
2018-Feb-18 14:30N 49°48' W 124°37'0 0.0
2018-Feb-18 14:00N 49°48' W 124°37'0 0.0
2018-Feb-18 13:30N 49°48' W 124°37'0 0.1
2018-Feb-18 13:00N 49°48' W 124°37'0 0.0
2018-Feb-18 12:30N 49°48' W 124°37'0 0.0
2018-Feb-18 11:51N 49°48' W 124°37'0 0.1
2018-Feb-18 11:24N 49°48' W 124°37'0 0.0
2018-Feb-18 10:51N 49°48' W 124°37'0 0.1
2018-Feb-18 10:21N 49°48' W 124°37'0 0.0
2018-Feb-18 09:57N 49°48' W 124°37'0 0.1
2018-Feb-18 09:30N 49°48' W 124°37'0 0.0
2018-Feb-18 09:00N 49°48' W 124°37'0 0.0
2018-Feb-18 08:30N 49°48' W 124°37'0 0.1
2018-Feb-18 07:57N 49°48' W 124°37'0 0.1
2018-Feb-18 07:21N 49°48' W 124°37'0 0.0
2018-Feb-18 06:57N 49°48' W 124°37'0 0.0
2018-Feb-18 06:27N 49°48' W 124°37'1 3.3
2018-Feb-18 06:00N 49°49' W 124°36'3 5.7
2018-Feb-18 05:30N 49°50' W 124°32'4 8.1
2018-Feb-18 05:00N 49°48' W 124°37'1 3.0
2018-Feb-18 04:30N 49°49' W 124°36'3 5.6
2018-Feb-18 04:01N 49°50' W 124°32'4 7.6
2018-Feb-18 03:31N 49°48' W 124°37'0 0.6
2018-Feb-18 03:00N 49°49' W 124°37'4 7.0
2018-Feb-18 02:30N 49°50' W 124°32'0 0.0
2018-Feb-18 02:01N 49°50' W 124°32'1 3.0
2018-Feb-18 01:31N 49°49' W 124°34'3 5.5
2018-Feb-18 01:01N 49°48' W 124°37'2 3.1
2018-Feb-18 00:30N 49°49' W 124°36'3 5.3
2018-Feb-18 00:00N 49°50' W 124°32'4 8.4
2018-Feb-17 23:31N 49°48' W 124°37'0 0.2
2018-Feb-17 23:01N 49°48' W 124°37'0 0.0
2018-Feb-17 22:30N 49°48' W 124°37'0 0.0
2018-Feb-17 21:57N 49°48' W 124°37'0 0.0
2018-Feb-17 21:30N 49°48' W 124°37'0 0.1
2018-Feb-17 20:57N 49°48' W 124°37'2 4.0
2018-Feb-17 20:30N 49°49' W 124°35'2 5.0
2018-Feb-17 20:00N 49°50' W 124°32'4 7.5
2018-Feb-17 19:30N 49°48' W 124°37'1 1.2
2018-Feb-17 19:00N 49°48' W 124°37'0 0.0
2018-Feb-17 18:27N 49°48' W 124°37'0 0.6
2018-Feb-17 18:00N 49°48' W 124°37'4 7.9
2018-Feb-17 17:31N 49°50' W 124°32'2 4.2
2018-Feb-17 17:00N 49°49' W 124°35'2 4.3
2018-Feb-17 16:30N 49°48' W 124°37'0 0.0
2018-Feb-17 15:58N 49°48' W 124°37'0 0.0
2018-Feb-17 15:31N 49°48' W 124°37'3 5.7
2018-Feb-17 15:00N 49°49' W 124°33'1 2.6
2018-Feb-17 14:30N 49°50' W 124°32'4 8.0
2018-Feb-17 14:01N 49°48' W 124°37'0 0.1
2018-Feb-17 13:30N 49°48' W 124°37'0 0.1
2018-Feb-17 12:50N 49°48' W 124°37'0 0.0
2018-Feb-17 12:26N 49°48' W 124°37'0 0.0
2018-Feb-17 11:59N 49°48' W 124°37'0 0.0
2018-Feb-17 11:26N 49°48' W 124°37'0 0.1
2018-Feb-17 10:56N 49°48' W 124°37'0 0.1
2018-Feb-17 10:23N 49°48' W 124°37'0 0.1
2018-Feb-17 09:59N 49°48' W 124°37'0 0.0
2018-Feb-17 09:29N 49°48' W 124°37'0 0.0
2018-Feb-17 08:59N 49°48' W 124°37'0 0.1
2018-Feb-17 08:26N 49°48' W 124°37'0 0.0
2018-Feb-17 07:56N 49°48' W 124°37'0 0.1
2018-Feb-17 07:29N 49°48' W 124°37'0 0.0
2018-Feb-17 06:59N 49°48' W 124°37'0 0.0
2018-Feb-17 06:14N 49°48' W 124°37'0 0.0
2018-Feb-17 05:56N 49°48' W 124°37'2 5.3
2018-Feb-17 05:30N 49°49' W 124°35'2 3.1
2018-Feb-17 05:00N 49°50' W 124°33'4 7.0
2018-Feb-17 04:28N 49°48' W 124°37'1 1.8
2018-Feb-17 04:00N 49°48' W 124°37'4 7.1
2018-Feb-17 03:30N 49°50' W 124°32'3 5.9
2018-Feb-17 03:00N 49°49' W 124°36'1 2.8
2018-Feb-17 02:30N 49°48' W 124°37'4 8.1
2018-Feb-17 02:01N 49°50' W 124°32'0 0.4
2018-Feb-17 01:31N 49°50' W 124°32'4 8.0
2018-Feb-17 01:00N 49°48' W 124°37'0 0.0
2018-Feb-17 00:30N 49°48' W 124°37'2 3.8
2018-Feb-17 00:00N 49°49' W 124°35'2 4.7
2018-Feb-16 23:31N 49°50' W 124°32'4 8.3
2018-Feb-16 23:00N 49°48' W 124°37'0 0.2
2018-Feb-16 22:31N 49°48' W 124°37'0 0.0
2018-Feb-16 21:59N 49°48' W 124°37'0 0.1
2018-Feb-16 21:29N 49°48' W 124°37'0 0.0
2018-Feb-16 20:59N 49°48' W 124°37'2 3.2
2018-Feb-16 20:30N 49°49' W 124°36'3 5.5
2018-Feb-16 20:01N 49°50' W 124°32'4 7.5
2018-Feb-16 19:30N 49°48' W 124°37'0 0.6
2018-Feb-16 19:01N 49°49' W 124°37'3 6.9
2018-Feb-16 18:31N 49°50' W 124°32'0 0.0
2018-Feb-16 18:00N 49°50' W 124°32'3 6.2
2018-Feb-16 17:30N 49°49' W 124°36'1 2.3
2018-Feb-16 17:00N 49°48' W 124°37'4 8.1
2018-Feb-16 16:30N 49°50' W 124°32'3 6.0
2018-Feb-16 16:00N 49°49' W 124°36'1 2.4
2018-Feb-16 15:23N 49°48' W 124°37'3 6.5
2018-Feb-16 15:00N 49°49' W 124°34'2 3.4
2018-Feb-16 14:29N 49°50' W 124°32'4 8.5
2018-Feb-16 14:00N 49°48' W 124°37'0 0.1
2018-Feb-16 13:30N 49°48' W 124°37'0 0.0
2018-Feb-16 12:58N 49°48' W 124°37'0 0.0
2018-Feb-16 12:25N 49°48' W 124°37'0 0.1
2018-Feb-16 11:52N 49°48' W 124°37'0 0.1
2018-Feb-16 11:28N 49°48' W 124°37'0 0.1
2018-Feb-16 10:58N 49°48' W 124°37'0 0.0
2018-Feb-16 10:28N 49°48' W 124°37'0 0.1
2018-Feb-16 09:58N 49°48' W 124°37'0 0.1
2018-Feb-16 09:28N 49°48' W 124°37'0 0.1
2018-Feb-16 08:58N 49°48' W 124°37'0 0.0
2018-Feb-16 08:28N 49°48' W 124°37'0 0.1
2018-Feb-16 07:58N 49°48' W 124°37'0 0.1
2018-Feb-16 07:28N 49°48' W 124°37'0 0.0
2018-Feb-16 06:58N 49°48' W 124°37'0 0.0
2018-Feb-16 06:28N 49°48' W 124°37'0 0.1
2018-Feb-16 05:58N 49°48' W 124°37'2 4.8
2018-Feb-16 05:30N 49°49' W 124°35'2 3.4
2018-Feb-16 05:01N 49°50' W 124°33'4 7.9
2018-Feb-16 04:31N 49°48' W 124°37'1 1.2
2018-Feb-16 04:01N 49°48' W 124°37'4 7.6
2018-Feb-16 03:30N 49°50' W 124°32'3 5.5
2018-Feb-16 03:00N 49°49' W 124°36'2 3.2
2018-Feb-16 02:30N 49°48' W 124°37'4 7.9
2018-Feb-16 02:01N 49°50' W 124°32'0 0.7
2018-Feb-16 01:31N 49°50' W 124°33'4 7.6
2018-Feb-16 01:01N 49°48' W 124°37'0 0.0
2018-Feb-16 00:31N 49°48' W 124°37'2 4.5
2018-Feb-16 00:00N 49°49' W 124°35'2 4.0
2018-Feb-15 23:31N 49°50' W 124°32'4 8.2
2018-Feb-15 23:00N 49°48' W 124°37'0 0.2
2018-Feb-15 22:30N 49°48' W 124°37'0 0.0
2018-Feb-15 21:58N 49°48' W 124°37'0 0.0
2018-Feb-15 21:28N 49°48' W 124°37'0 0.1
2018-Feb-15 20:52N 49°48' W 124°37'2 5.3
2018-Feb-15 20:30N 49°49' W 124°36'3 4.8
2018-Feb-15 19:59N 49°50' W 124°32'4 7.9
2018-Feb-15 19:31N 49°48' W 124°37'0 0.8
2018-Feb-15 19:00N 49°49' W 124°37'3 6.7
2018-Feb-15 18:30N 49°50' W 124°32'0 0.0
2018-Feb-15 17:59N 49°50' W 124°32'3 6.2
2018-Feb-15 17:30N 49°49' W 124°36'1 2.0
2018-Feb-15 17:01N 49°48' W 124°37'4 7.9
2018-Feb-15 16:30N 49°50' W 124°32'3 6.1
2018-Feb-15 16:00N 49°49' W 124°36'1 3.0
2018-Feb-15 15:30N 49°48' W 124°37'3 5.2
2018-Feb-15 15:00N 49°49' W 124°34'2 3.2
2018-Feb-15 14:30N 49°50' W 124°32'4 8.3
2018-Feb-15 14:00N 49°48' W 124°37'0 0.2
2018-Feb-15 13:31N 49°48' W 124°37'0 0.0
2018-Feb-15 12:59N 49°48' W 124°37'0 0.1
2018-Feb-15 12:26N 49°48' W 124°37'0 0.0
2018-Feb-15 11:50N 49°48' W 124°37'0 0.1
2018-Feb-15 11:26N 49°48' W 124°37'0 0.1
2018-Feb-15 10:56N 49°48' W 124°37'0 0.0
2018-Feb-15 08:50N 49°48' W 124°37'0 0.1
2018-Feb-15 08:26N 49°48' W 124°37'0 0.0
2018-Feb-15 07:14N 49°48' W 124°37'0 0.0
2018-Feb-15 06:59N 49°48' W 124°37'0 0.0
2018-Feb-15 06:23N 49°48' W 124°37'0 0.0
2018-Feb-15 05:54N 49°48' W 124°37'3 6.4
2018-Feb-15 05:30N 49°49' W 124°34'1 2.2
2018-Feb-15 05:00N 49°50' W 124°33'4 7.2
2018-Feb-15 04:30N 49°48' W 124°37'1 1.6
2018-Feb-15 04:00N 49°48' W 124°37'4 7.1
2018-Feb-15 03:30N 49°50' W 124°32'3 6.1
2018-Feb-15 03:00N 49°49' W 124°36'1 2.6
2018-Feb-15 02:30N 49°48' W 124°37'4 8.3
2018-Feb-15 02:01N 49°50' W 124°32'1 1.1
2018-Feb-15 01:30N 49°50' W 124°33'4 7.7
2018-Feb-15 01:00N 49°48' W 124°37'0 0.0
2018-Feb-15 00:30N 49°48' W 124°37'2 4.4
2018-Feb-15 00:00N 49°49' W 124°35'2 4.1
2018-Feb-14 23:31N 49°50' W 124°32'4 8.0
2018-Feb-14 22:59N 49°48' W 124°37'0 0.0
2018-Feb-14 22:31N 49°48' W 124°37'0 0.0
2018-Feb-14 22:00N 49°48' W 124°37'0 0.0
2018-Feb-14 21:27N 49°48' W 124°37'0 0.0
2018-Feb-14 20:54N 49°48' W 124°37'2 3.8
2018-Feb-14 20:30N 49°49' W 124°36'3 5.5
2018-Feb-14 20:00N 49°50' W 124°32'4 7.8
2018-Feb-14 19:30N 49°48' W 124°37'1 1.0
2018-Feb-14 18:53N 49°48' W 124°37'1 1.7
2018-Feb-14 18:30N 49°48' W 124°37'4 7.5
2018-Feb-14 18:00N 49°50' W 124°32'3 6.8
2018-Feb-14 17:30N 49°49' W 124°37'1 1.7
2018-Feb-14 17:00N 49°48' W 124°37'4 8.0
2018-Feb-14 16:30N 49°50' W 124°32'3 6.4
2018-Feb-14 16:00N 49°49' W 124°36'1 2.6
2018-Feb-14 15:30N 49°48' W 124°37'3 6.9
2018-Feb-14 15:00N 49°50' W 124°33'1 1.5
2018-Feb-14 14:30N 49°50' W 124°32'4 8.3
2018-Feb-14 14:00N 49°48' W 124°37'0 0.0
2018-Feb-14 13:27N 49°48' W 124°37'0 0.0
2018-Feb-14 13:00N 49°48' W 124°37'0 0.0
2018-Feb-14 12:27N 49°48' W 124°37'0 0.0
2018-Feb-14 11:57N 49°48' W 124°37'0 0.0
2018-Feb-14 11:27N 49°48' W 124°37'0 0.0
2018-Feb-14 10:57N 49°48' W 124°37'0 0.0
2018-Feb-14 10:27N 49°48' W 124°37'0 0.0
2018-Feb-14 09:39N 49°48' W 124°37'0 0.0
2018-Feb-14 09:27N 49°48' W 124°37'0 0.0
2018-Feb-14 08:57N 49°48' W 124°37'0 0.0
2018-Feb-14 07:33N 49°48' W 124°37'0 0.0
2018-Feb-14 07:09N 49°48' W 124°37'0 0.0
2018-Feb-14 06:54N 49°48' W 124°37'0 0.1
2018-Feb-14 06:29N 49°48' W 124°37'0 0.0
2018-Feb-14 06:01N 49°48' W 124°37'4 8.3
2018-Feb-14 05:30N 49°50' W 124°32'1 1.4
2018-Feb-14 05:00N 49°50' W 124°33'3 7.0
2018-Feb-14 04:30N 49°48' W 124°37'1 2.2
2018-Feb-14 04:00N 49°49' W 124°36'3 6.4
2018-Feb-14 03:30N 49°50' W 124°32'3 6.2
2018-Feb-14 03:01N 49°49' W 124°36'1 1.5
2018-Feb-14 02:30N 49°48' W 124°37'4 7.8
2018-Feb-14 02:00N 49°50' W 124°32'1 1.3
2018-Feb-14 01:30N 49°50' W 124°33'4 7.3
2018-Feb-14 01:00N 49°48' W 124°37'0 0.0
2018-Feb-14 00:30N 49°48' W 124°37'3 6.5
2018-Feb-14 00:00N 49°50' W 124°33'1 1.8
2018-Feb-13 23:30N 49°50' W 124°32'4 8.4
2018-Feb-13 23:00N 49°48' W 124°37'0 0.1
2018-Feb-13 22:30N 49°48' W 124°37'0 0.0
2018-Feb-13 21:59N 49°48' W 124°37'0 0.0
2018-Feb-13 21:26N 49°48' W 124°37'0 0.0
2018-Feb-13 20:59N 49°48' W 124°37'1 3.1
2018-Feb-13 20:30N 49°49' W 124°36'3 5.8
2018-Feb-13 20:00N 49°50' W 124°32'3 6.3
2018-Feb-13 19:31N 49°49' W 124°36'1 1.2
2018-Feb-13 19:01N 49°48' W 124°37'4 7.4
2018-Feb-13 18:30N 49°50' W 124°32'0 0.0
2018-Feb-13 18:01N 49°50' W 124°32'3 5.6
2018-Feb-13 17:30N 49°49' W 124°36'1 2.9
2018-Feb-13 17:01N 49°48' W 124°37'4 8.2
2018-Feb-13 16:30N 49°50' W 124°32'3 5.6
2018-Feb-13 16:00N 49°49' W 124°36'2 3.2
2018-Feb-13 15:31N 49°48' W 124°37'3 5.3
2018-Feb-13 15:00N 49°49' W 124°34'2 3.2
2018-Feb-13 14:31N 49°50' W 124°32'4 8.3
2018-Feb-13 14:01N 49°48' W 124°37'0 0.2
2018-Feb-13 13:31N 49°48' W 124°37'0 0.0
2018-Feb-13 12:52N 49°48' W 124°37'0 0.0
2018-Feb-13 12:28N 49°48' W 124°37'0 0.0
2018-Feb-13 11:58N 49°48' W 124°37'0 0.0
2018-Feb-13 11:28N 49°48' W 124°37'0 0.0
2018-Feb-13 10:55N 49°48' W 124°37'0 0.0
2018-Feb-13 10:01N 49°48' W 124°37'0 0.0
2018-Feb-13 09:58N 49°48' W 124°37'0 0.1
2018-Feb-13 09:28N 49°48' W 124°37'0 0.1
2018-Feb-13 08:58N 49°48' W 124°37'0 0.1
2018-Feb-13 08:28N 49°48' W 124°37'0 0.1
2018-Feb-13 07:58N 49°48' W 124°37'0 0.0
2018-Feb-13 07:28N 49°48' W 124°37'0 0.0
2018-Feb-13 06:37N 49°48' W 124°37'0 0.0
2018-Feb-13 06:28N 49°48' W 124°37'0 0.0
2018-Feb-13 05:58N 49°48' W 124°37'3 5.5
2018-Feb-13 05:30N 49°49' W 124°34'1 2.4
2018-Feb-13 05:00N 49°50' W 124°33'4 7.5
2018-Feb-13 04:30N 49°48' W 124°37'1 2.1
2018-Feb-13 04:00N 49°49' W 124°36'3 6.5
2018-Feb-13 03:30N 49°50' W 124°32'3 6.2
2018-Feb-13 03:00N 49°49' W 124°36'1 2.6
2018-Feb-13 02:30N 49°48' W 124°37'4 8.4
2018-Feb-13 02:00N 49°50' W 124°32'1 1.5
2018-Feb-13 01:30N 49°50' W 124°33'4 7.4
2018-Feb-13 01:00N 49°48' W 124°37'0 0.0
2018-Feb-13 00:30N 49°48' W 124°37'2 3.7
2018-Feb-13 00:00N 49°49' W 124°35'2 4.8
2018-Feb-12 23:30N 49°50' W 124°32'4 8.4
2018-Feb-12 23:00N 49°48' W 124°37'0 0.0
2018-Feb-12 22:30N 49°48' W 124°37'0 0.0
2018-Feb-12 21:31N 49°48' W 124°37'0 0.0
2018-Feb-12 21:19N 49°48' W 124°37'0 0.0
2018-Feb-12 20:55N 49°48' W 124°37'2 4.1
2018-Feb-12 20:30N 49°49' W 124°36'3 5.2
2018-Feb-12 20:00N 49°50' W 124°32'4 7.3
2018-Feb-12 19:30N 49°49' W 124°37'0 0.4
2018-Feb-12 19:00N 49°48' W 124°37'4 7.1
2018-Feb-12 18:30N 49°50' W 124°32'0 0.0
2018-Feb-12 18:00N 49°50' W 124°32'3 5.3
2018-Feb-12 17:30N 49°49' W 124°36'2 3.2
2018-Feb-12 17:01N 49°48' W 124°37'4 8.2
2018-Feb-12 16:30N 49°50' W 124°32'3 5.3
2018-Feb-12 16:00N 49°49' W 124°36'2 3.3
2018-Feb-12 15:30N 49°48' W 124°37'2 4.6
2018-Feb-12 15:00N 49°49' W 124°35'2 3.9
2018-Feb-12 14:31N 49°50' W 124°32'4 8.2
2018-Feb-12 14:00N 49°48' W 124°37'0 0.1
2018-Feb-12 13:30N 49°48' W 124°37'0 0.1
2018-Feb-12 12:55N 49°48' W 124°37'0 0.1
2018-Feb-12 12:28N 49°48' W 124°37'0 0.0
2018-Feb-12 11:58N 49°48' W 124°37'0 0.1
2018-Feb-12 11:28N 49°48' W 124°37'0 0.0
2018-Feb-12 10:58N 49°48' W 124°37'0 0.0
2018-Feb-12 10:28N 49°48' W 124°37'0 0.0
2018-Feb-12 09:58N 49°48' W 124°37'0 0.0
2018-Feb-12 09:28N 49°48' W 124°37'0 0.0
2018-Feb-12 08:58N 49°48' W 124°37'0 0.0
2018-Feb-12 08:28N 49°48' W 124°37'0 0.0
2018-Feb-12 07:58N 49°48' W 124°37'0 0.0
2018-Feb-12 07:28N 49°48' W 124°37'0 0.0
2018-Feb-12 06:58N 49°48' W 124°37'0 0.0
2018-Feb-12 06:28N 49°48' W 124°37'2 3.4
2018-Feb-12 06:01N 49°49' W 124°36'3 5.4
2018-Feb-12 05:30N 49°50' W 124°32'4 8.4
2018-Feb-12 05:00N 49°48' W 124°37'2 3.7
2018-Feb-12 04:30N 49°49' W 124°35'2 4.9
2018-Feb-12 04:00N 49°50' W 124°32'4 7.7
2018-Feb-12 03:30N 49°48' W 124°37'0 1.0
2018-Feb-12 03:00N 49°49' W 124°37'3 6.8
2018-Feb-12 02:30N 49°50' W 124°32'0 0.0
2018-Feb-12 02:00N 49°50' W 124°32'2 3.2
2018-Feb-12 01:30N 49°50' W 124°34'3 5.6
2018-Feb-12 01:00N 49°48' W 124°37'2 4.4
2018-Feb-12 00:30N 49°49' W 124°35'2 4.1
2018-Feb-12 00:00N 49°50' W 124°32'4 8.3
2018-Feb-11 23:30N 49°48' W 124°37'0 0.1
2018-Feb-11 23:00N 49°48' W 124°37'0 0.0
2018-Feb-11 22:30N 49°48' W 124°37'0 0.0
2018-Feb-11 22:00N 49°48' W 124°37'0 0.0
2018-Feb-11 21:30N 49°48' W 124°37'0 0.0
2018-Feb-11 21:01N 49°48' W 124°37'2 3.1
2018-Feb-11 20:30N 49°49' W 124°36'3 5.5
2018-Feb-11 20:00N 49°50' W 124°32'4 7.3
2018-Feb-11 19:31N 49°48' W 124°37'1 1.6
2018-Feb-11 19:00N 49°48' W 124°37'0 0.0
2018-Feb-11 18:30N 49°48' W 124°37'0 0.1
2018-Feb-11 18:01N 49°48' W 124°37'4 8.3
2018-Feb-11 17:30N 49°50' W 124°32'2 3.8
2018-Feb-11 17:01N 49°49' W 124°35'2 4.7
2018-Feb-11 16:30N 49°48' W 124°37'0 0.0
2018-Feb-11 16:01N 49°48' W 124°37'0 0.0
2018-Feb-11 15:30N 49°48' W 124°37'2 4.6
2018-Feb-11 15:01N 49°49' W 124°35'2 4.0
2018-Feb-11 14:30N 49°50' W 124°32'4 8.2
2018-Feb-11 14:00N 49°48' W 124°37'0 0.0
2018-Feb-11 10:23N 49°48' W 124°37'0 0.0
2018-Feb-11 09:59N 49°48' W 124°37'0 0.1
2018-Feb-11 09:29N 49°48' W 124°37'0 0.1
2018-Feb-11 08:59N 49°48' W 124°37'0 0.1
2018-Feb-11 08:29N 49°48' W 124°37'0 0.1
2018-Feb-11 07:59N 49°48' W 124°37'0 0.0
2018-Feb-11 07:26N 49°48' W 124°37'0 0.0
2018-Feb-11 06:41N 49°48' W 124°37'0 0.0
2018-Feb-11 06:29N 49°48' W 124°37'1 3.1
2018-Feb-11 06:00N 49°49' W 124°36'3 5.5
2018-Feb-11 05:31N 49°50' W 124°32'4 8.4
2018-Feb-11 05:00N 49°48' W 124°37'2 4.1
2018-Feb-11 04:30N 49°49' W 124°35'2 4.4
2018-Feb-11 04:01N 49°50' W 124°32'4 7.2
2018-Feb-11 03:30N 49°48' W 124°37'0 0.8
2018-Feb-11 03:00N 49°49' W 124°36'3 6.6
2018-Feb-11 02:30N 49°50' W 124°32'0 0.0
2018-Feb-11 02:01N 49°50' W 124°32'2 4.0
2018-Feb-11 01:30N 49°50' W 124°35'2 4.9
2018-Feb-11 01:00N 49°48' W 124°37'2 3.8
2018-Feb-11 00:30N 49°49' W 124°35'2 4.6
2018-Feb-11 00:00N 49°50' W 124°32'4 8.5
2018-Feb-10 23:30N 49°48' W 124°37'0 0.0
2018-Feb-10 20:55N 49°48' W 124°37'2 3.8
2018-Feb-10 20:30N 49°49' W 124°36'3 5.5
2018-Feb-10 20:00N 49°50' W 124°32'4 7.2
2018-Feb-10 19:30N 49°48' W 124°37'1 1.6
2018-Feb-10 19:00N 49°48' W 124°37'1 1.1
2018-Feb-10 18:31N 49°48' W 124°37'2 3.2
2018-Feb-10 18:00N 49°49' W 124°35'2 3.8
2018-Feb-10 17:30N 49°50' W 124°33'4 7.6
2018-Feb-10 17:00N 49°48' W 124°37'4 8.4
2018-Feb-10 16:30N 49°50' W 124°32'3 5.7
2018-Feb-10 16:00N 49°49' W 124°36'1 2.4
2018-Feb-10 15:26N 49°48' W 124°37'3 6.6
2018-Feb-10 15:00N 49°49' W 124°34'  
Track history (hours):
 
Tides and Currents Weather Stations Pressure Air Temp Water Temp Dewpoint Dewpoint Depression Visibility Wind Speed Wind Dir Waves Ship Positions

North Island Princes

Last reported at 2018-Feb-20 15:00 UTC. Time now 2018-Feb-20 15:08 UTC.
Position N 49°49' W 124°34'.

Length 66 m; draft 3 m.

Type: Passenger vessel. MMSI: 316001242.

Date/timePositionNaut miles runAvg speedWind from/ knotsBaromVisibWave heightAir tempDewpointWater temp
2018-Feb-20 15:00N 49°49' W 124°34'2 3.1
2018-Feb-20 14:31N 49°50' W 124°32'4 8.2
2018-Feb-20 14:00N 49°48' W 124°37'0 0.0
2018-Feb-20 12:28N 49°48' W 124°37'0 0.1
2018-Feb-20 11:46N 49°48' W 124°37'0 0.0
2018-Feb-20 11:28N 49°48' W 124°37'0 0.0
2018-Feb-20 10:52N 49°48' W 124°37'0 0.1
2018-Feb-20 10:28N 49°48' W 124°37'0 0.0
2018-Feb-20 09:58N 49°48' W 124°37'0 0.1
2018-Feb-20 09:28N 49°48' W 124°37'0 0.1
2018-Feb-20 08:58N 49°48' W 124°37'0 0.0
2018-Feb-20 08:28N 49°48' W 124°37'0 0.1
2018-Feb-20 07:58N 49°48' W 124°37'0 0.0
2018-Feb-20 07:28N 49°48' W 124°37'0 0.1
2018-Feb-20 06:58N 49°48' W 124°37'0 0.0
2018-Feb-20 06:28N 49°48' W 124°37'0 0.0
2018-Feb-20 05:57N 49°48' W 124°37'4 8.3
2018-Feb-20 05:30N 49°50' W 124°33'2 3.3
2018-Feb-20 05:00N 49°49' W 124°35'2 3.9
2018-Feb-20 04:31N 49°48' W 124°37'1 1.7
2018-Feb-20 04:00N 49°48' W 124°37'3 7.0
2018-Feb-20 03:30N 49°50' W 124°32'3 5.3
2018-Feb-20 03:00N 49°49' W 124°35'2 3.2
2018-Feb-20 02:30N 49°48' W 124°37'4 8.2
2018-Feb-20 02:00N 49°50' W 124°32'0 0.5
2018-Feb-20 01:30N 49°50' W 124°32'4 7.1
2018-Feb-20 00:56N 49°48' W 124°37'0 0.0
2018-Feb-20 00:30N 49°48' W 124°37'2 3.2
2018-Feb-20 00:00N 49°49' W 124°36'3 5.4
2018-Feb-19 23:31N 49°50' W 124°32'4 8.2
2018-Feb-19 23:00N 49°48' W 124°37'0 0.2
2018-Feb-19 22:30N 49°48' W 124°37'0 0.0
2018-Feb-19 21:11N 49°48' W 124°37'0 0.2
2018-Feb-19 20:59N 49°48' W 124°37'2 3.8
2018-Feb-19 20:30N 49°49' W 124°36'3 5.1
2018-Feb-19 20:00N 49°50' W 124°32'4 7.7
2018-Feb-19 19:30N 49°48' W 124°37'0 0.9
2018-Feb-19 19:00N 49°49' W 124°37'3 6.9
2018-Feb-19 18:30N 49°50' W 124°32'0 0.0
2018-Feb-19 18:01N 49°50' W 124°32'3 5.9
2018-Feb-19 17:30N 49°49' W 124°36'1 2.5
2018-Feb-19 17:01N 49°48' W 124°37'4 8.1
2018-Feb-19 16:31N 49°50' W 124°32'3 6.1
2018-Feb-19 16:01N 49°49' W 124°36'1 2.8
2018-Feb-19 15:31N 49°48' W 124°37'3 5.1
2018-Feb-19 15:00N 49°49' W 124°34'2 3.2
2018-Feb-19 14:30N 49°50' W 124°32'4 8.2
2018-Feb-19 14:00N 49°48' W 124°37'0 0.2
2018-Feb-19 13:30N 49°48' W 124°37'0 0.0
2018-Feb-19 10:20N 49°48' W 124°37'0 0.0
2018-Feb-19 09:44N 49°48' W 124°37'0 1.9
2018-Feb-19 09:30N 49°48' W 124°37'4 7.8
2018-Feb-19 09:00N 49°50' W 124°32'3 7.0
2018-Feb-19 08:31N 49°49' W 124°37'1 1.8
2018-Feb-19 07:59N 49°48' W 124°37'0 0.1
2018-Feb-19 07:29N 49°48' W 124°37'0 0.0
2018-Feb-19 06:59N 49°48' W 124°37'0 0.0
2018-Feb-19 06:29N 49°48' W 124°37'1 2.7
2018-Feb-19 06:00N 49°49' W 124°36'3 6.0
2018-Feb-19 05:31N 49°50' W 124°32'4 8.3
2018-Feb-19 05:00N 49°48' W 124°37'1 2.8
2018-Feb-19 04:30N 49°49' W 124°36'3 5.8
2018-Feb-19 04:00N 49°50' W 124°32'4 8.0
2018-Feb-19 03:30N 49°48' W 124°37'1 1.1
2018-Feb-19 03:00N 49°48' W 124°37'4 7.4
2018-Feb-19 02:30N 49°50' W 124°32'0 0.0
2018-Feb-19 02:00N 49°50' W 124°32'1 2.3
2018-Feb-19 01:30N 49°50' W 124°33'3 4.7
2018-Feb-19 00:51N 49°48' W 124°37'2 5.9
2018-Feb-19 00:30N 49°49' W 124°35'2 3.7
2018-Feb-19 00:00N 49°50' W 124°32'4 7.8
2018-Feb-18 23:30N 49°48' W 124°37'0 0.0
2018-Feb-18 22:55N 49°48' W 124°37'0 0.0
2018-Feb-18 22:13N 49°48' W 124°37'0 0.0
2018-Feb-18 21:58N 49°48' W 124°37'0 0.0
2018-Feb-18 21:10N 49°48' W 124°37'0 0.0
2018-Feb-18 20:58N 49°48' W 124°37'2 3.6
2018-Feb-18 20:30N 49°49' W 124°35'3 5.2
2018-Feb-18 20:00N 49°50' W 124°32'4 7.9
2018-Feb-18 19:30N 49°48' W 124°37'1 0.9
2018-Feb-18 18:54N 49°48' W 124°37'0 0.0
2018-Feb-18 18:24N 49°48' W 124°37'0 0.6
2018-Feb-18 18:00N 49°48' W 124°37'4 8.0
2018-Feb-18 17:30N 49°50' W 124°32'2 4.6
2018-Feb-18 17:00N 49°49' W 124°35'2 4.0
2018-Feb-18 16:30N 49°48' W 124°37'0 0.0
2018-Feb-18 15:58N 49°48' W 124°37'2 4.2
2018-Feb-18 15:29N 49°49' W 124°34'2 4.6
2018-Feb-18 15:00N 49°50' W 124°32'4 8.1
2018-Feb-18 14:30N 49°48' W 124°37'0 0.0
2018-Feb-18 14:00N 49°48' W 124°37'0 0.0
2018-Feb-18 13:30N 49°48' W 124°37'0 0.1
2018-Feb-18 13:00N 49°48' W 124°37'0 0.0
2018-Feb-18 12:30N 49°48' W 124°37'0 0.0
2018-Feb-18 11:51N 49°48' W 124°37'0 0.1
2018-Feb-18 11:24N 49°48' W 124°37'0 0.0
2018-Feb-18 10:51N 49°48' W 124°37'0 0.1
2018-Feb-18 10:21N 49°48' W 124°37'0 0.0
2018-Feb-18 09:57N 49°48' W 124°37'0 0.1
2018-Feb-18 09:30N 49°48' W 124°37'0 0.0
2018-Feb-18 09:00N 49°48' W 124°37'0 0.0
2018-Feb-18 08:30N 49°48' W 124°37'0 0.1
2018-Feb-18 07:57N 49°48' W 124°37'0 0.1
2018-Feb-18 07:21N 49°48' W 124°37'0 0.0
2018-Feb-18 06:57N 49°48' W 124°37'0 0.0
2018-Feb-18 06:27N 49°48' W 124°37'1 3.3
2018-Feb-18 06:00N 49°49' W 124°36'3 5.7
2018-Feb-18 05:30N 49°50' W 124°32'4 8.1
2018-Feb-18 05:00N 49°48' W 124°37'1 3.0
2018-Feb-18 04:30N 49°49' W 124°36'3 5.6
2018-Feb-18 04:01N 49°50' W 124°32'4 7.6
2018-Feb-18 03:31N 49°48' W 124°37'0 0.6
2018-Feb-18 03:00N 49°49' W 124°37'4 7.0
2018-Feb-18 02:30N 49°50' W 124°32'0 0.0
2018-Feb-18 02:01N 49°50' W 124°32'1 3.0
2018-Feb-18 01:31N 49°49' W 124°34'3 5.5
2018-Feb-18 01:01N 49°48' W 124°37'2 3.1
2018-Feb-18 00:30N 49°49' W 124°36'3 5.3
2018-Feb-18 00:00N 49°50' W 124°32'4 8.4
2018-Feb-17 23:31N 49°48' W 124°37'0 0.2
2018-Feb-17 23:01N 49°48' W 124°37'0 0.0
2018-Feb-17 22:30N 49°48' W 124°37'0 0.0
2018-Feb-17 21:57N 49°48' W 124°37'0 0.0
2018-Feb-17 21:30N 49°48' W 124°37'0 0.1
2018-Feb-17 20:57N 49°48' W 124°37'2 4.0
2018-Feb-17 20:30N 49°49' W 124°35'2 5.0
2018-Feb-17 20:00N 49°50' W 124°32'4 7.5
2018-Feb-17 19:30N 49°48' W 124°37'1 1.2
2018-Feb-17 19:00N 49°48' W 124°37'0 0.0
2018-Feb-17 18:27N 49°48' W 124°37'0 0.6
2018-Feb-17 18:00N 49°48' W 124°37'4 7.9
2018-Feb-17 17:31N 49°50' W 124°32'2 4.2
2018-Feb-17 17:00N 49°49' W 124°35'2 4.3
2018-Feb-17 16:30N 49°48' W 124°37'0 0.0
2018-Feb-17 15:58N 49°48' W 124°37'0 0.0
2018-Feb-17 15:31N 49°48' W 124°37'3 5.7
2018-Feb-17 15:00N 49°49' W 124°33'1 2.6
2018-Feb-17 14:30N 49°50' W 124°32'4 8.0
2018-Feb-17 14:01N 49°48' W 124°37'0 0.1
2018-Feb-17 13:30N 49°48' W 124°37'0 0.1
2018-Feb-17 12:50N 49°48' W 124°37'0 0.0
2018-Feb-17 12:26N 49°48' W 124°37'0 0.0
2018-Feb-17 11:59N 49°48' W 124°37'0 0.0
2018-Feb-17 11:26N 49°48' W 124°37'0 0.1
2018-Feb-17 10:56N 49°48' W 124°37'0 0.1
2018-Feb-17 10:23N 49°48' W 124°37'0 0.1
2018-Feb-17 09:59N 49°48' W 124°37'0 0.0
2018-Feb-17 09:29N 49°48' W 124°37'0 0.0
2018-Feb-17 08:59N 49°48' W 124°37'0 0.1
2018-Feb-17 08:26N 49°48' W 124°37'0 0.0
2018-Feb-17 07:56N 49°48' W 124°37'0 0.1
2018-Feb-17 07:29N 49°48' W 124°37'0 0.0
2018-Feb-17 06:59N 49°48' W 124°37'0 0.0
2018-Feb-17 06:14N 49°48' W 124°37'0 0.0
2018-Feb-17 05:56N 49°48' W 124°37'2 5.3
2018-Feb-17 05:30N 49°49' W 124°35'2 3.1
2018-Feb-17 05:00N 49°50' W 124°33'4 7.0
2018-Feb-17 04:28N 49°48' W 124°37'1 1.8
2018-Feb-17 04:00N 49°48' W 124°37'4 7.1
2018-Feb-17 03:30N 49°50' W 124°32'3 5.9
2018-Feb-17 03:00N 49°49' W 124°36'1 2.8
2018-Feb-17 02:30N 49°48' W 124°37'4 8.1
2018-Feb-17 02:01N 49°50' W 124°32'0 0.4
2018-Feb-17 01:31N 49°50' W 124°32'4 8.0
2018-Feb-17 01:00N 49°48' W 124°37'0 0.0
2018-Feb-17 00:30N 49°48' W 124°37'2 3.8
2018-Feb-17 00:00N 49°49' W 124°35'2 4.7
2018-Feb-16 23:31N 49°50' W 124°32'4 8.3
2018-Feb-16 23:00N 49°48' W 124°37'0 0.2
2018-Feb-16 22:31N 49°48' W 124°37'0 0.0
2018-Feb-16 21:59N 49°48' W 124°37'0 0.1
2018-Feb-16 21:29N 49°48' W 124°37'0 0.0
2018-Feb-16 20:59N 49°48' W 124°37'2 3.2
2018-Feb-16 20:30N 49°49' W 124°36'3 5.5
2018-Feb-16 20:01N 49°50' W 124°32'4 7.5
2018-Feb-16 19:30N 49°48' W 124°37'0 0.6
2018-Feb-16 19:01N 49°49' W 124°37'3 6.9
2018-Feb-16 18:31N 49°50' W 124°32'0 0.0
2018-Feb-16 18:00N 49°50' W 124°32'3 6.2
2018-Feb-16 17:30N 49°49' W 124°36'1 2.3
2018-Feb-16 17:00N 49°48' W 124°37'4 8.1
2018-Feb-16 16:30N 49°50' W 124°32'3 6.0
2018-Feb-16 16:00N 49°49' W 124°36'1 2.4
2018-Feb-16 15:23N 49°48' W 124°37'3 6.5
2018-Feb-16 15:00N 49°49' W 124°34'2 3.4
2018-Feb-16 14:29N 49°50' W 124°32'4 8.5
2018-Feb-16 14:00N 49°48' W 124°37'0 0.1
2018-Feb-16 13:30N 49°48' W 124°37'0 0.0
2018-Feb-16 12:58N 49°48' W 124°37'0 0.0
2018-Feb-16 12:25N 49°48' W 124°37'0 0.1
2018-Feb-16 11:52N 49°48' W 124°37'0 0.1
2018-Feb-16 11:28N 49°48' W 124°37'0 0.1
2018-Feb-16 10:58N 49°48' W 124°37'0 0.0
2018-Feb-16 10:28N 49°48' W 124°37'0 0.1
2018-Feb-16 09:58N 49°48' W 124°37'0 0.1
2018-Feb-16 09:28N 49°48' W 124°37'0 0.1
2018-Feb-16 08:58N 49°48' W 124°37'0 0.0
2018-Feb-16 08:28N 49°48' W 124°37'0 0.1
2018-Feb-16 07:58N 49°48' W 124°37'0 0.1
2018-Feb-16 07:28N 49°48' W 124°37'0 0.0
2018-Feb-16 06:58N 49°48' W 124°37'0 0.0
2018-Feb-16 06:28N 49°48' W 124°37'0 0.1
2018-Feb-16 05:58N 49°48' W 124°37'2 4.8
2018-Feb-16 05:30N 49°49' W 124°35'2 3.4
2018-Feb-16 05:01N 49°50' W 124°33'4 7.9
2018-Feb-16 04:31N 49°48' W 124°37'1 1.2
2018-Feb-16 04:01N 49°48' W 124°37'4 7.6
2018-Feb-16 03:30N 49°50' W 124°32'3 5.5
2018-Feb-16 03:00N 49°49' W 124°36'2 3.2
2018-Feb-16 02:30N 49°48' W 124°37'4 7.9
2018-Feb-16 02:01N 49°50' W 124°32'0 0.7
2018-Feb-16 01:31N 49°50' W 124°33'4 7.6
2018-Feb-16 01:01N 49°48' W 124°37'0 0.0
2018-Feb-16 00:31N 49°48' W 124°37'2 4.5
2018-Feb-16 00:00N 49°49' W 124°35'2 4.0
2018-Feb-15 23:31N 49°50' W 124°32'4 8.2
2018-Feb-15 23:00N 49°48' W 124°37'0 0.2
2018-Feb-15 22:30N 49°48' W 124°37'0 0.0
2018-Feb-15 21:58N 49°48' W 124°37'0 0.0
2018-Feb-15 21:28N 49°48' W 124°37'0 0.1
2018-Feb-15 20:52N 49°48' W 124°37'2 5.3
2018-Feb-15 20:30N 49°49' W 124°36'3 4.8
2018-Feb-15 19:59N 49°50' W 124°32'4 7.9
2018-Feb-15 19:31N 49°48' W 124°37'0 0.8
2018-Feb-15 19:00N 49°49' W 124°37'3 6.7
2018-Feb-15 18:30N 49°50' W 124°32'0 0.0
2018-Feb-15 17:59N 49°50' W 124°32'3 6.2
2018-Feb-15 17:30N 49°49' W 124°36'1 2.0
2018-Feb-15 17:01N 49°48' W 124°37'4 7.9
2018-Feb-15 16:30N 49°50' W 124°32'3 6.1
2018-Feb-15 16:00N 49°49' W 124°36'1 3.0
2018-Feb-15 15:30N 49°48' W 124°37'3 5.2
2018-Feb-15 15:00N 49°49' W 124°34'2 3.2
2018-Feb-15 14:30N 49°50' W 124°32'4 8.3
2018-Feb-15 14:00N 49°48' W 124°37'0 0.2
2018-Feb-15 13:31N 49°48' W 124°37'0 0.0
2018-Feb-15 12:59N 49°48' W 124°37'0 0.1
2018-Feb-15 12:26N 49°48' W 124°37'0 0.0
2018-Feb-15 11:50N 49°48' W 124°37'0 0.1
2018-Feb-15 11:26N 49°48' W 124°37'0 0.1
2018-Feb-15 10:56N 49°48' W 124°37'0 0.0
2018-Feb-15 08:50N 49°48' W 124°37'0 0.1
2018-Feb-15 08:26N 49°48' W 124°37'0 0.0
2018-Feb-15 07:14N 49°48' W 124°37'0 0.0
2018-Feb-15 06:59N 49°48' W 124°37'0 0.0
2018-Feb-15 06:23N 49°48' W 124°37'0 0.0
2018-Feb-15 05:54N 49°48' W 124°37'3 6.4
2018-Feb-15 05:30N 49°49' W 124°34'1 2.2
2018-Feb-15 05:00N 49°50' W 124°33'4 7.2
2018-Feb-15 04:30N 49°48' W 124°37'1 1.6
2018-Feb-15 04:00N 49°48' W 124°37'4 7.1
2018-Feb-15 03:30N 49°50' W 124°32'3 6.1
2018-Feb-15 03:00N 49°49' W 124°36'1 2.6
2018-Feb-15 02:30N 49°48' W 124°37'4 8.3
2018-Feb-15 02:01N 49°50' W 124°32'1 1.1
2018-Feb-15 01:30N 49°50' W 124°33'4 7.7
2018-Feb-15 01:00N 49°48' W 124°37'0 0.0
2018-Feb-15 00:30N 49°48' W 124°37'2 4.4
2018-Feb-15 00:00N 49°49' W 124°35'2 4.1
2018-Feb-14 23:31N 49°50' W 124°32'4 8.0
2018-Feb-14 22:59N 49°48' W 124°37'0 0.0
2018-Feb-14 22:31N 49°48' W 124°37'0 0.0
2018-Feb-14 22:00N 49°48' W 124°37'0 0.0
2018-Feb-14 21:27N 49°48' W 124°37'0 0.0
2018-Feb-14 20:54N 49°48' W 124°37'2 3.8
2018-Feb-14 20:30N 49°49' W 124°36'3 5.5
2018-Feb-14 20:00N 49°50' W 124°32'4 7.8
2018-Feb-14 19:30N 49°48' W 124°37'1 1.0
2018-Feb-14 18:53N 49°48' W 124°37'1 1.7
2018-Feb-14 18:30N 49°48' W 124°37'4 7.5
2018-Feb-14 18:00N 49°50' W 124°32'3 6.8
2018-Feb-14 17:30N 49°49' W 124°37'1 1.7
2018-Feb-14 17:00N 49°48' W 124°37'4 8.0
2018-Feb-14 16:30N 49°50' W 124°32'3 6.4
2018-Feb-14 16:00N 49°49' W 124°36'1 2.6
2018-Feb-14 15:30N 49°48' W 124°37'3 6.9
2018-Feb-14 15:00N 49°50' W 124°33'1 1.5
2018-Feb-14 14:30N 49°50' W 124°32'4 8.3
2018-Feb-14 14:00N 49°48' W 124°37'0 0.0
2018-Feb-14 13:27N 49°48' W 124°37'0 0.0
2018-Feb-14 13:00N 49°48' W 124°37'0 0.0
2018-Feb-14 12:27N 49°48' W 124°37'0 0.0
2018-Feb-14 11:57N 49°48' W 124°37'0 0.0
2018-Feb-14 11:27N 49°48' W 124°37'0 0.0
2018-Feb-14 10:57N 49°48' W 124°37'0 0.0
2018-Feb-14 10:27N 49°48' W 124°37'0 0.0
2018-Feb-14 09:39N 49°48' W 124°37'0 0.0
2018-Feb-14 09:27N 49°48' W 124°37'0 0.0
2018-Feb-14 08:57N 49°48' W 124°37'0 0.0
2018-Feb-14 07:33N 49°48' W 124°37'0 0.0
2018-Feb-14 07:09N 49°48' W 124°37'0 0.0
2018-Feb-14 06:54N 49°48' W 124°37'0 0.1
2018-Feb-14 06:29N 49°48' W 124°37'0 0.0
2018-Feb-14 06:01N 49°48' W 124°37'4 8.3
2018-Feb-14 05:30N 49°50' W 124°32'1 1.4
2018-Feb-14 05:00N 49°50' W 124°33'3 7.0
2018-Feb-14 04:30N 49°48' W 124°37'1 2.2
2018-Feb-14 04:00N 49°49' W 124°36'3 6.4
2018-Feb-14 03:30N 49°50' W 124°32'3 6.2
2018-Feb-14 03:01N 49°49' W 124°36'1 1.5
2018-Feb-14 02:30N 49°48' W 124°37'4 7.8
2018-Feb-14 02:00N 49°50' W 124°32'1 1.3
2018-Feb-14 01:30N 49°50' W 124°33'4 7.3
2018-Feb-14 01:00N 49°48' W 124°37'0 0.0
2018-Feb-14 00:30N 49°48' W 124°37'3 6.5
2018-Feb-14 00:00N 49°50' W 124°33'1 1.8
2018-Feb-13 23:30N 49°50' W 124°32'4 8.4
2018-Feb-13 23:00N 49°48' W 124°37'0 0.1
2018-Feb-13 22:30N 49°48' W 124°37'0 0.0
2018-Feb-13 21:59N 49°48' W 124°37'0 0.0
2018-Feb-13 21:26N 49°48' W 124°37'0 0.0
2018-Feb-13 20:59N 49°48' W 124°37'1 3.1
2018-Feb-13 20:30N 49°49' W 124°36'3 5.8
2018-Feb-13 20:00N 49°50' W 124°32'3 6.3
2018-Feb-13 19:31N 49°49' W 124°36'1 1.2
2018-Feb-13 19:01N 49°48' W 124°37'4 7.4
2018-Feb-13 18:30N 49°50' W 124°32'0 0.0
2018-Feb-13 18:01N 49°50' W 124°32'3 5.6
2018-Feb-13 17:30N 49°49' W 124°36'1 2.9
2018-Feb-13 17:01N 49°48' W 124°37'4 8.2
2018-Feb-13 16:30N 49°50' W 124°32'3 5.6
2018-Feb-13 16:00N 49°49' W 124°36'2 3.2
2018-Feb-13 15:31N 49°48' W 124°37'3 5.3
2018-Feb-13 15:00N 49°49' W 124°34'2 3.2
2018-Feb-13 14:31N 49°50' W 124°32'4 8.3
2018-Feb-13 14:01N 49°48' W 124°37'0 0.2
2018-Feb-13 13:31N 49°48' W 124°37'0 0.0
2018-Feb-13 12:52N 49°48' W 124°37'0 0.0
2018-Feb-13 12:28N 49°48' W 124°37'0 0.0
2018-Feb-13 11:58N 49°48' W 124°37'0 0.0
2018-Feb-13 11:28N 49°48' W 124°37'0 0.0
2018-Feb-13 10:55N 49°48' W 124°37'0 0.0
2018-Feb-13 10:01N 49°48' W 124°37'0 0.0
2018-Feb-13 09:58N 49°48' W 124°37'0 0.1
2018-Feb-13 09:28N 49°48' W 124°37'0 0.1
2018-Feb-13 08:58N 49°48' W 124°37'0 0.1
2018-Feb-13 08:28N 49°48' W 124°37'0 0.1
2018-Feb-13 07:58N 49°48' W 124°37'0 0.0
2018-Feb-13 07:28N 49°48' W 124°37'0 0.0
2018-Feb-13 06:37N 49°48' W 124°37'0 0.0
2018-Feb-13 06:28N 49°48' W 124°37'0 0.0
2018-Feb-13 05:58N 49°48' W 124°37'3 5.5
2018-Feb-13 05:30N 49°49' W 124°34'1 2.4
2018-Feb-13 05:00N 49°50' W 124°33'4 7.5
2018-Feb-13 04:30N 49°48' W 124°37'1 2.1
2018-Feb-13 04:00N 49°49' W 124°36'3 6.5
2018-Feb-13 03:30N 49°50' W 124°32'3 6.2
2018-Feb-13 03:00N 49°49' W 124°36'1 2.6
2018-Feb-13 02:30N 49°48' W 124°37'4 8.4
2018-Feb-13 02:00N 49°50' W 124°32'1 1.5
2018-Feb-13 01:30N 49°50' W 124°33'4 7.4
2018-Feb-13 01:00N 49°48' W 124°37'0 0.0
2018-Feb-13 00:30N 49°48' W 124°37'2 3.7
2018-Feb-13 00:00N 49°49' W 124°35'2 4.8
2018-Feb-12 23:30N 49°50' W 124°32'4 8.4
2018-Feb-12 23:00N 49°48' W 124°37'0 0.0
2018-Feb-12 22:30N 49°48' W 124°37'0 0.0
2018-Feb-12 21:31N 49°48' W 124°37'0 0.0
2018-Feb-12 21:19N 49°48' W 124°37'0 0.0
2018-Feb-12 20:55N 49°48' W 124°37'2 4.1
2018-Feb-12 20:30N 49°49' W 124°36'3 5.2
2018-Feb-12 20:00N 49°50' W 124°32'4 7.3
2018-Feb-12 19:30N 49°49' W 124°37'0 0.4
2018-Feb-12 19:00N 49°48' W 124°37'4 7.1
2018-Feb-12 18:30N 49°50' W 124°32'0 0.0
2018-Feb-12 18:00N 49°50' W 124°32'3 5.3
2018-Feb-12 17:30N 49°49' W 124°36'2 3.2
2018-Feb-12 17:01N 49°48' W 124°37'4 8.2
2018-Feb-12 16:30N 49°50' W 124°32'3 5.3
2018-Feb-12 16:00N 49°49' W 124°36'2 3.3
2018-Feb-12 15:30N 49°48' W 124°37'2 4.6
2018-Feb-12 15:00N 49°49' W 124°35'2 3.9
2018-Feb-12 14:31N 49°50' W 124°32'4 8.2
2018-Feb-12 14:00N 49°48' W 124°37'0 0.1
2018-Feb-12 13:30N 49°48' W 124°37'0 0.1
2018-Feb-12 12:55N 49°48' W 124°37'0 0.1
2018-Feb-12 12:28N 49°48' W 124°37'0 0.0
2018-Feb-12 11:58N 49°48' W 124°37'0 0.1
2018-Feb-12 11:28N 49°48' W 124°37'0 0.0
2018-Feb-12 10:58N 49°48' W 124°37'0 0.0
2018-Feb-12 10:28N 49°48' W 124°37'0 0.0
2018-Feb-12 09:58N 49°48' W 124°37'0 0.0
2018-Feb-12 09:28N 49°48' W 124°37'0 0.0
2018-Feb-12 08:58N 49°48' W 124°37'0 0.0
2018-Feb-12 08:28N 49°48' W 124°37'0 0.0
2018-Feb-12 07:58N 49°48' W 124°37'0 0.0
2018-Feb-12 07:28N 49°48' W 124°37'0 0.0
2018-Feb-12 06:58N 49°48' W 124°37'0 0.0
2018-Feb-12 06:28N 49°48' W 124°37'2 3.4
2018-Feb-12 06:01N 49°49' W 124°36'3 5.4
2018-Feb-12 05:30N 49°50' W 124°32'4 8.4
2018-Feb-12 05:00N 49°48' W 124°37'2 3.7
2018-Feb-12 04:30N 49°49' W 124°35'2 4.9
2018-Feb-12 04:00N 49°50' W 124°32'4 7.7
2018-Feb-12 03:30N 49°48' W 124°37'0 1.0
2018-Feb-12 03:00N 49°49' W 124°37'3 6.8
2018-Feb-12 02:30N 49°50' W 124°32'0 0.0
2018-Feb-12 02:00N 49°50' W 124°32'2 3.2
2018-Feb-12 01:30N 49°50' W 124°34'3 5.6
2018-Feb-12 01:00N 49°48' W 124°37'2 4.4
2018-Feb-12 00:30N 49°49' W 124°35'2 4.1
2018-Feb-12 00:00N 49°50' W 124°32'4 8.3
2018-Feb-11 23:30N 49°48' W 124°37'0 0.1
2018-Feb-11 23:00N 49°48' W 124°37'0 0.0
2018-Feb-11 22:30N 49°48' W 124°37'0 0.0
2018-Feb-11 22:00N 49°48' W 124°37'0 0.0
2018-Feb-11 21:30N 49°48' W 124°37'0 0.0
2018-Feb-11 21:01N 49°48' W 124°37'2 3.1
2018-Feb-11 20:30N 49°49' W 124°36'3 5.5
2018-Feb-11 20:00N 49°50' W 124°32'4 7.3
2018-Feb-11 19:31N 49°48' W 124°37'1 1.6
2018-Feb-11 19:00N 49°48' W 124°37'0 0.0
2018-Feb-11 18:30N 49°48' W 124°37'0 0.1
2018-Feb-11 18:01N 49°48' W 124°37'4 8.3
2018-Feb-11 17:30N 49°50' W 124°32'2 3.8
2018-Feb-11 17:01N 49°49' W 124°35'2 4.7
2018-Feb-11 16:30N 49°48' W 124°37'0 0.0
2018-Feb-11 16:01N 49°48' W 124°37'0 0.0
2018-Feb-11 15:30N 49°48' W 124°37'2 4.6
2018-Feb-11 15:01N 49°49' W 124°35'2 4.0
2018-Feb-11 14:30N 49°50' W 124°32'4 8.2
2018-Feb-11 14:00N 49°48' W 124°37'0 0.0
2018-Feb-11 10:23N 49°48' W 124°37'0 0.0
2018-Feb-11 09:59N 49°48' W 124°37'0 0.1
2018-Feb-11 09:29N 49°48' W 124°37'0 0.1
2018-Feb-11 08:59N 49°48' W 124°37'0 0.1
2018-Feb-11 08:29N 49°48' W 124°37'0 0.1
2018-Feb-11 07:59N 49°48' W 124°37'0 0.0
2018-Feb-11 07:26N 49°48' W 124°37'0 0.0
2018-Feb-11 06:41N 49°48' W 124°37'0 0.0
2018-Feb-11 06:29N 49°48' W 124°37'1 3.1
2018-Feb-11 06:00N 49°49' W 124°36'3 5.5
2018-Feb-11 05:31N 49°50' W 124°32'4 8.4
2018-Feb-11 05:00N 49°48' W 124°37'2 4.1
2018-Feb-11 04:30N 49°49' W 124°35'2 4.4
2018-Feb-11 04:01N 49°50' W 124°32'4 7.2
2018-Feb-11 03:30N 49°48' W 124°37'0 0.8
2018-Feb-11 03:00N 49°49' W 124°36'3 6.6
2018-Feb-11 02:30N 49°50' W 124°32'0 0.0
2018-Feb-11 02:01N 49°50' W 124°32'2 4.0
2018-Feb-11 01:30N 49°50' W 124°35'2 4.9
2018-Feb-11 01:00N 49°48' W 124°37'2 3.8
2018-Feb-11 00:30N 49°49' W 124°35'2 4.6
2018-Feb-11 00:00N 49°50' W 124°32'4 8.5
2018-Feb-10 23:30N 49°48' W 124°37'0 0.0
2018-Feb-10 20:55N 49°48' W 124°37'2 3.8
2018-Feb-10 20:30N 49°49' W 124°36'3 5.5
2018-Feb-10 20:00N 49°50' W 124°32'4 7.2
2018-Feb-10 19:30N 49°48' W 124°37'1 1.6
2018-Feb-10 19:00N 49°48' W 124°37'1 1.1
2018-Feb-10 18:31N 49°48' W 124°37'2 3.2
2018-Feb-10 18:00N 49°49' W 124°35'2 3.8
2018-Feb-10 17:30N 49°50' W 124°33'4 7.6
2018-Feb-10 17:00N 49°48' W 124°37'4 8.4
2018-Feb-10 16:30N 49°50' W 124°32'3 5.7
2018-Feb-10 16:00N 49°49' W 124°36'1 2.4
2018-Feb-10 15:26N 49°48' W 124°37'3 6.6
2018-Feb-10 15:00N 49°49' W 124°34'  

Dump ship's entire track history